Time;durP1;ratioP1;P1;durP2;ratioP2;P2;SDS_P1;SDS_P2;PMS_P1;PMS_P2;Temp;Humidity;BMP_temperature;BMP_pressure;BME280_temperature;BME280_humidity;BME280_pressure;Samples;Min_cycle;Max_cycle;Signal;HPM_P1;HPM_P2
2022/01/31 00:01:42;;;;;;;146.27;117.68;;;18.70;39.40;;;;;;4737975;55;21445;-35
2022/01/31 00:06:48;;;;;;;141.23;113.25;;;18.80;39.40;;;;;;4742109;55;21034;-42
2022/01/31 00:11:57;;;;;;;149.50;117.03;;;18.70;39.40;;;;;;4761667;55;21572;-34
2022/01/31 00:16:58;;;;;;;141.05;113.70;;;18.70;39.40;;;;;;4765812;55;21644;-38
2022/01/31 00:21:59;;;;;;;141.73;113.68;;;18.80;39.50;;;;;;4800595;55;20979;-35
2022/01/31 00:27:02;;;;;;;139.70;114.55;;;18.80;39.40;;;;;;4759917;55;21030;-37
2022/01/31 00:32:04;;;;;;;146.05;116.20;;;18.70;39.40;;;;;;4745530;55;21074;-35
2022/01/31 00:37:05;;;;;;;142.75;116.00;;;18.70;39.30;;;;;;4737737;59;21053;-39
2022/01/31 00:42:07;;;;;;;137.10;110.12;;;18.70;39.30;;;;;;4745637;55;21466;-39
2022/01/31 00:47:18;;;;;;;142.95;113.72;;;18.70;39.30;;;;;;4759193;55;21021;-43
2022/01/31 00:52:19;;;;;;;141.50;112.32;;;18.70;39.30;;;;;;4753774;55;21504;-35
2022/01/31 00:57:20;;;;;;;147.30;113.65;;;18.70;39.20;;;;;;4746538;55;21135;-39
2022/01/31 01:02:23;;;;;;;141.02;111.70;;;18.70;39.20;;;;;;4737751;59;21081;-41
2022/01/31 01:07:24;;;;;;;142.77;113.97;;;18.70;39.20;;;;;;4736826;59;21010;-36
2022/01/31 01:12:25;;;;;;;141.50;114.80;;;18.70;39.20;;;;;;4738386;55;21026;-46
2022/01/31 01:17:25;;;;;;;142.25;113.18;;;18.70;39.10;;;;;;4752852;55;21092;-37
2022/01/31 01:22:26;;;;;;;143.18;112.97;;;18.70;39.10;;;;;;4738776;55;21014;-35
2022/01/31 01:27:27;;;;;;;140.37;110.55;;;18.70;39.20;;;;;;4754391;55;21643;-41
2022/01/31 01:32:32;;;;;;;141.18;112.72;;;18.70;39.10;;;;;;4753891;55;21052;-38
2022/01/31 01:37:33;;;;;;;139.45;112.00;;;18.70;39.20;;;;;;4737871;59;21520;-44
2022/01/31 01:42:34;;;;;;;137.40;109.20;;;18.70;39.10;;;;;;4753306;55;21021;-49
2022/01/31 01:47:36;;;;;;;140.85;109.68;;;18.70;39.10;;;;;;4737122;59;21069;-44
2022/01/31 01:52:37;;;;;;;139.40;109.45;;;18.70;39.00;;;;;;4737319;59;22249;-40
2022/01/31 01:57:39;;;;;;;136.60;107.05;;;18.70;39.00;;;;;;4774445;55;21289;-39
2022/01/31 02:02:40;;;;;;;133.52;105.55;;;18.70;38.90;;;;;;4741727;55;21460;-34
2022/01/31 02:07:42;;;;;;;134.60;107.37;;;18.70;39.60;;;;;;4737177;55;21018;-44
2022/01/31 02:12:46;;;;;;;135.60;108.20;;;18.70;38.90;;;;;;4748684;55;21063;-41
2022/01/31 02:17:47;;;;;;;135.02;105.00;;;18.70;39.00;;;;;;4756740;55;21034;-44
2022/01/31 02:22:49;;;;;;;133.63;104.55;;;18.70;39.00;;;;;;4742854;55;21460;-40
2022/01/31 02:27:50;;;;;;;130.57;104.85;;;18.70;38.90;;;;;;4737363;59;21109;-35
2022/01/31 02:32:51;;;;;;;134.70;105.05;;;18.70;38.90;;;;;;4743467;55;21554;-38
2022/01/31 02:37:52;;;;;;;135.90;104.70;;;18.70;38.90;;;;;;4737885;59;21064;-49
2022/01/31 02:42:53;;;;;;;130.02;101.82;;;18.70;38.90;;;;;;4743376;55;20994;-35
2022/01/31 02:47:57;;;;;;;131.57;102.65;;;18.70;38.80;;;;;;4762185;55;21033;-41
2022/01/31 02:59:02;;;;;;;124.78;99.80;;;18.70;38.80;;;;;;4740525;55;21514;-34
2022/01/31 03:04:04;;;;;;;125.72;99.95;;;18.70;38.80;;;;;;4739867;55;20982;-41
2022/01/31 03:09:05;;;;;;;131.45;101.93;;;18.60;38.70;;;;;;4747057;55;21086;-50
2022/01/31 03:14:06;;;;;;;127.35;101.35;;;18.70;38.70;;;;;;4768003;55;21028;-35
2022/01/31 03:19:07;;;;;;;115.85;93.30;;;18.70;38.70;;;;;;4765751;55;20998;-44
2022/01/31 03:24:09;;;;;;;125.55;98.32;;;18.70;38.70;;;;;;4766136;55;21450;-44
2022/01/31 03:29:10;;;;;;;120.03;94.60;;;18.70;38.80;;;;;;4762297;55;21110;-41
2022/01/31 03:34:11;;;;;;;118.25;95.38;;;18.70;38.70;;;;;;4754694;55;20990;-40
2022/01/31 03:39:12;;;;;;;118.30;93.10;;;18.60;38.60;;;;;;4738219;55;21176;-40
2022/01/31 03:44:13;;;;;;;119.87;93.47;;;18.60;38.50;;;;;;4778647;55;21046;-38
2022/01/31 03:49:14;;;;;;;117.25;92.20;;;18.60;38.50;;;;;;4739019;55;21025;-39
2022/01/31 03:54:15;;;;;;;119.30;94.87;;;18.60;38.40;;;;;;4748949;55;21034;-40
2022/01/31 03:59:16;;;;;;;118.07;93.53;;;18.60;38.50;;;;;;4738715;55;20998;-36
2022/01/31 04:04:17;;;;;;;117.22;91.95;;;18.70;38.50;;;;;;4740862;55;21496;-41
2022/01/31 04:09:17;;;;;;;112.88;89.22;;;18.60;38.40;;;;;;4767946;55;21002;-40
2022/01/31 04:14:18;;;;;;;112.85;89.78;;;18.70;38.40;;;;;;4737694;55;21492;-34
2022/01/31 04:19:19;;;;;;;109.28;88.87;;;18.60;38.40;;;;;;4753249;55;21076;-38
2022/01/31 04:24:23;;;;;;;108.57;85.93;;;18.60;38.40;;;;;;4742245;55;21034;-43
2022/01/31 04:29:28;;;;;;;111.80;87.68;;;18.60;38.40;;;;;;4737373;55;21603;-46
2022/01/31 04:34:31;;;;;;;105.30;84.10;;;18.60;38.40;;;;;;4772901;55;21551;-36
2022/01/31 04:39:33;;;;;;;106.18;83.90;;;18.60;38.40;;;;;;4744768;55;21583;-35
2022/01/31 04:44:35;;;;;;;104.38;82.05;;;18.60;38.40;;;;;;4754384;55;21976;-45
2022/01/31 04:49:36;;;;;;;106.55;84.70;;;18.60;38.50;;;;;;4737337;59;21631;-46
2022/01/31 04:54:37;;;;;;;103.22;83.18;;;18.60;38.50;;;;;;4748571;55;20970;-37
2022/01/31 04:59:41;;;;;;;100.62;81.78;;;18.60;38.50;;;;;;4751776;55;21555;-34
2022/01/31 05:04:42;;;;;;;96.78;77.90;;;18.60;38.60;;;;;;4778373;55;21564;-34
2022/01/31 05:09:45;;;;;;;100.97;79.72;;;18.60;38.60;;;;;;4745704;55;21070;-40
2022/01/31 05:14:46;;;;;;;100.80;78.82;;;18.60;38.60;;;;;;4761565;55;21658;-43
2022/01/31 05:19:46;;;;;;;98.22;78.85;;;18.60;38.60;;;;;;4737726;59;21009;-37
2022/01/31 05:24:47;;;;;;;96.35;76.68;;;18.60;38.60;;;;;;4803561;55;21517;-35
2022/01/31 05:29:48;;;;;;;98.37;78.82;;;18.60;38.70;;;;;;4738945;55;21101;-41
2022/01/31 05:34:49;;;;;;;97.03;76.07;;;18.60;38.60;;;;;;4773754;55;20994;-43
2022/01/31 05:39:53;;;;;;;96.78;78.93;;;18.60;38.70;;;;;;4747006;55;21089;-36
2022/01/31 05:44:54;;;;;;;96.70;75.30;;;18.70;38.70;;;;;;4752821;55;21027;-37
2022/01/31 05:49:54;;;;;;;92.97;72.55;;;18.60;38.70;;;;;;4744539;55;21443;-40
2022/01/31 05:54:56;;;;;;;90.95;71.47;;;18.60;38.70;;;;;;4738164;59;21468;-35
2022/01/31 05:59:56;;;;;;;89.13;71.60;;;18.60;38.70;;;;;;4738193;59;21018;-35
2022/01/31 06:04:57;;;;;;;90.68;73.95;;;18.60;38.70;;;;;;4758846;55;21523;-38
2022/01/31 06:09:59;;;;;;;90.43;71.97;;;18.60;38.80;;;;;;4743186;55;21009;-36
2022/01/31 06:15:00;;;;;;;89.72;71.85;;;18.60;38.80;;;;;;4757968;55;21575;-42
2022/01/31 06:20:02;;;;;;;90.22;71.50;;;18.60;38.80;;;;;;4738380;59;20998;-42
2022/01/31 06:25:04;;;;;;;91.20;71.32;;;18.60;38.80;;;;;;4744353;55;21484;-39
2022/01/31 06:30:07;;;;;;;88.25;69.95;;;18.60;38.80;;;;;;4737855;59;21570;-48
2022/01/31 06:35:09;;;;;;;87.37;69.97;;;18.60;38.80;;;;;;4740845;55;20981;-43
2022/01/31 06:40:10;;;;;;;82.12;64.28;;;18.60;38.90;;;;;;4766375;55;21065;-39
2022/01/31 06:45:11;;;;;;;85.50;69.43;;;18.60;38.80;;;;;;4738025;59;21567;-46
2022/01/31 06:50:13;;;;;;;85.15;68.22;;;18.60;38.80;;;;;;4747593;55;21496;-42
2022/01/31 06:55:19;;;;;;;85.47;69.30;;;18.60;38.80;;;;;;4738542;55;21487;-39
2022/01/31 07:00:21;;;;;;;84.10;67.70;;;18.60;38.80;;;;;;4738350;59;21544;-37
2022/01/31 07:05:22;;;;;;;86.55;67.80;;;18.60;38.80;;;;;;4737916;59;21046;-40
2022/01/31 07:10:23;;;;;;;87.12;69.45;;;18.60;38.80;;;;;;4770609;55;21061;-36
2022/01/31 07:15:24;;;;;;;87.70;68.70;;;18.60;38.80;;;;;;4748715;55;21091;-36
2022/01/31 07:20:36;;;;;;;88.53;69.65;;;18.60;38.80;;;;;;4751112;55;21037;-41
2022/01/31 07:25:37;;;;;;;91.47;71.68;;;18.60;38.80;;;;;;4744336;55;21540;-36
2022/01/31 07:30:39;;;;;;;90.43;71.45;;;18.60;38.80;;;;;;4737609;59;21058;-41
2022/01/31 07:35:42;;;;;;;87.22;69.35;;;18.60;38.80;;;;;;4739801;55;21049;-36
2022/01/31 07:40:43;;;;;;;94.20;74.45;;;18.60;38.80;;;;;;4772147;55;21066;-38
2022/01/31 07:45:44;;;;;;;89.90;70.47;;;18.60;38.80;;;;;;4824011;55;21058;-39
2022/01/31 07:50:45;;;;;;;93.50;75.05;;;18.60;38.80;;;;;;4760918;55;21500;-36
2022/01/31 07:55:46;;;;;;;91.60;73.45;;;18.60;38.90;;;;;;4737923;59;21488;-36
2022/01/31 08:00:47;;;;;;;90.03;73.82;;;18.60;38.80;;;;;;4737898;59;21025;-38
2022/01/31 08:05:48;;;;;;;92.43;75.05;;;18.60;38.80;;;;;;4763219;55;21124;-44
2022/01/31 08:10:49;;;;;;;93.97;76.95;;;18.70;38.90;;;;;;4764838;55;21034;-37
2022/01/31 08:16:02;;;;;;;92.05;76.80;;;18.50;38.80;;;;;;4736839;59;21034;-38
2022/01/31 08:21:03;;;;;;;101.22;78.43;;;18.60;38.80;;;;;;4763181;55;21571;-52
2022/01/31 08:26:07;;;;;;;101.40;80.55;;;18.60;39.00;;;;;;4737885;59;21145;-34
2022/01/31 08:31:19;;;;;;;101.38;79.32;;;18.70;38.90;;;;;;4747452;55;21532;-39
2022/01/31 08:36:19;;;;;;;105.70;82.90;;;18.70;39.10;;;;;;4747797;55;21556;-37
2022/01/31 08:41:20;;;;;;;121.70;91.87;;;18.80;39.20;;;;;;4749309;55;21113;-44
2022/01/31 08:46:22;;;;;;;120.05;83.43;;;18.80;40.50;;;;;;4737513;59;21014;-44
2022/01/31 08:51:23;;;;;;;115.90;87.20;;;18.90;41.80;;;;;;4749613;55;21480;-35
2022/01/31 08:56:25;;;;;;;151.77;87.37;;;19.00;41.90;;;;;;4748532;55;21009;-38
2022/01/31 09:01:26;;;;;;;158.48;91.60;;;19.00;43.90;;;;;;4757730;55;21171;-44
2022/01/31 09:06:29;;;;;;;133.25;89.65;;;19.00;51.20;;;;;;4737383;59;21464;-48
2022/01/31 09:11:31;;;;;;;136.20;85.50;;;19.00;53.90;;;;;;4743996;55;21093;-36
2022/01/31 09:16:32;;;;;;;143.95;90.53;;;19.10;55.90;;;;;;4774515;55;22100;-43
2022/01/31 09:21:34;;;;;;;188.40;93.62;;;19.10;58.60;;;;;;4737305;59;21480;-39
2022/01/31 09:26:36;;;;;;;149.77;90.25;;;19.10;61.10;;;;;;4742988;55;21488;-38
2022/01/31 09:31:37;;;;;;;151.18;91.10;;;19.10;59.50;;;;;;4765318;55;21491;-36
2022/01/31 09:36:39;;;;;;;185.12;98.62;;;19.10;60.60;;;;;;4769873;55;21002;-37
2022/01/31 09:41:42;;;;;;;161.32;98.82;;;19.10;58.60;;;;;;4737437;59;21038;-42
2022/01/31 09:53:17;;;;;;;166.05;102.35;;;19.20;57.40;;;;;;4741158;55;21579;-40
2022/01/31 09:58:19;;;;;;;156.63;102.32;;;19.20;57.20;;;;;;4736493;55;21081;-44
2022/01/31 10:03:20;;;;;;;170.70;109.40;;;19.20;56.60;;;;;;4793368;55;21030;-36
2022/01/31 10:08:21;;;;;;;176.87;114.57;;;19.20;56.40;;;;;;4737215;59;21536;-34
2022/01/31 10:19:05;;;;;;;200.68;135.48;;;19.10;55.40;;;;;;4737979;55;21125;-31
2022/01/31 10:24:16;;;;;;;189.57;132.40;;;19.10;55.00;;;;;;4737897;59;21480;-34
2022/01/31 10:29:19;;;;;;;187.23;132.52;;;19.10;54.80;;;;;;4752307;55;21473;-36
2022/01/31 10:34:23;;;;;;;176.77;130.45;;;19.20;54.40;;;;;;4738348;59;21037;-37
2022/01/31 10:45:10;;;;;;;174.40;129.68;;;19.20;53.90;;;;;;4738137;55;21519;-38
2022/01/31 10:55:41;;;;;;;188.48;131.80;;;19.10;53.50;;;;;;4756228;55;21520;-37
2022/01/31 11:00:42;;;;;;;189.02;136.50;;;19.00;53.30;;;;;;4734797;55;21014;-36
2022/01/31 11:05:48;;;;;;;180.95;136.35;;;19.00;53.00;;;;;;4741923;55;21026;-30
2022/01/31 11:10:49;;;;;;;182.65;134.10;;;19.00;52.90;;;;;;4749930;55;21101;-36
2022/01/31 11:15:52;;;;;;;181.82;135.15;;;19.00;52.70;;;;;;4756138;55;21640;-36
2022/01/31 11:20:58;;;;;;;178.73;136.43;;;19.00;52.50;;;;;;4754409;55;21113;-38
2022/01/31 11:26:01;;;;;;;183.70;137.13;;;18.90;52.20;;;;;;4769413;55;21028;-34
2022/01/31 11:31:03;;;;;;;174.87;133.48;;;18.90;52.00;;;;;;4742197;55;21536;-36
2022/01/31 11:36:04;;;;;;;174.82;137.23;;;18.90;51.90;;;;;;4783474;55;21113;-37
2022/01/31 11:41:06;;;;;;;191.57;141.10;;;18.90;51.80;;;;;;4779867;55;21002;-37
2022/01/31 11:46:08;;;;;;;180.50;136.48;;;18.90;51.60;;;;;;4740782;55;21010;-35
2022/01/31 11:51:09;;;;;;;183.75;140.32;;;18.90;51.40;;;;;;4737817;59;21062;-37
2022/01/31 11:56:17;;;;;;;181.98;138.25;;;18.90;51.40;;;;;;4752659;55;21480;-37
2022/01/31 12:01:20;;;;;;;183.95;141.18;;;18.90;51.20;;;;;;4779261;55;21038;-38
2022/01/31 12:06:28;;;;;;;180.93;139.23;;;18.90;51.00;;;;;;4743913;55;21022;-37
2022/01/31 12:11:30;;;;;;;178.27;138.25;;;18.90;50.90;;;;;;4737501;59;21065;-34
2022/01/31 12:22:04;;;;;;;181.70;138.40;;;18.80;50.50;;;;;;4737653;55;21030;-36
2022/01/31 12:27:17;;;;;;;179.80;139.75;;;18.80;50.40;;;;;;4764051;55;21564;-34
2022/01/31 12:32:32;;;;;;;186.30;140.88;;;18.80;50.20;;;;;;4746725;55;21496;-37
2022/01/31 12:37:37;;;;;;;187.82;144.27;;;18.80;50.20;;;;;;4746442;55;20990;-34
2022/01/31 12:50:24;;;;;;;178.87;138.55;;;18.80;50.50;;;;;;4737372;59;21006;-45
2022/01/31 12:55:28;;;;;;;177.93;142.48;;;18.80;49.80;;;;;;4744710;55;21045;-34
2022/01/31 13:00:41;;;;;;;176.32;141.80;;;18.80;49.60;;;;;;4749572;55;22398;-32
2022/01/31 13:05:42;;;;;;;181.75;139.85;;;18.80;49.50;;;;;;4763328;55;21624;-33
2022/01/31 13:10:43;;;;;;;177.75;139.60;;;18.80;49.50;;;;;;4808697;55;21551;-37
2022/01/31 13:15:44;;;;;;;174.32;137.65;;;18.80;49.40;;;;;;4746255;55;21061;-35
2022/01/31 13:20:46;;;;;;;179.40;140.23;;;18.80;49.30;;;;;;4737540;59;21555;-35
2022/01/31 13:25:57;;;;;;;182.48;143.98;;;18.80;49.10;;;;;;4766805;55;21519;-35
2022/01/31 13:31:11;;;;;;;175.98;141.35;;;18.80;49.10;;;;;;4745332;55;21534;-35
2022/01/31 13:36:13;;;;;;;179.52;143.07;;;18.80;48.90;;;;;;4748014;55;21143;-35
2022/01/31 13:41:18;;;;;;;177.85;140.85;;;18.80;48.90;;;;;;4751557;55;21074;-35
2022/01/31 13:46:30;;;;;;;188.15;144.10;;;18.80;48.90;;;;;;4737616;59;21646;-31
2022/01/31 13:51:41;;;;;;;179.70;140.73;;;18.80;48.80;;;;;;4749128;55;21619;-31
2022/01/31 13:56:55;;;;;;;183.60;145.32;;;18.80;49.10;;;;;;4768539;55;21544;-34
2022/01/31 14:02:10;;;;;;;177.93;144.13;;;18.80;48.70;;;;;;4737380;59;21507;-34
2022/01/31 14:07:29;;;;;;;181.52;143.65;;;18.80;48.60;;;;;;4751507;55;21014;-36
2022/01/31 14:12:30;;;;;;;179.98;142.60;;;18.80;48.50;;;;;;4774084;55;21607;-36
2022/01/31 14:17:31;;;;;;;180.43;143.68;;;18.80;48.40;;;;;;4737518;59;21049;-38
2022/01/31 14:22:34;;;;;;;185.18;145.07;;;18.80;48.30;;;;;;4766454;55;21006;-35
2022/01/31 14:27:35;;;;;;;183.35;143.02;;;18.80;48.30;;;;;;4738069;55;21061;-32
2022/01/31 14:32:36;;;;;;;180.52;142.95;;;18.80;48.20;;;;;;4738472;55;21026;-37
2022/01/31 14:37:49;;;;;;;184.15;145.20;;;18.80;48.20;;;;;;4737908;59;21034;-38
2022/01/31 14:43:17;;;;;;;174.73;140.07;;;18.80;48.10;;;;;;4738044;59;21140;-45
2022/01/31 14:48:18;;;;;;;183.95;142.70;;;18.80;48.00;;;;;;4748687;55;21691;-35
2022/01/31 14:53:19;;;;;;;173.35;139.12;;;18.80;47.90;;;;;;4739461;55;21568;-36
2022/01/31 14:58:20;;;;;;;178.50;141.98;;;18.80;47.90;;;;;;4738519;59;21025;-37
2022/01/31 15:03:23;;;;;;;173.25;139.48;;;18.80;47.80;;;;;;4751766;55;21448;-34
2022/01/31 15:08:24;;;;;;;175.70;142.65;;;18.80;47.90;;;;;;4774149;55;21583;-38
2022/01/31 15:13:25;;;;;;;180.10;142.18;;;18.80;47.70;;;;;;4745021;55;21110;-35
2022/01/31 15:18:26;;;;;;;177.45;141.12;;;18.80;47.70;;;;;;4762000;55;21014;-35
2022/01/31 15:23:37;;;;;;;173.45;139.35;;;18.80;47.60;;;;;;4762334;55;21607;-35
2022/01/31 15:28:40;;;;;;;179.02;144.95;;;18.80;47.60;;;;;;4737023;59;21077;-34
2022/01/31 15:33:41;;;;;;;166.50;137.52;;;18.80;47.50;;;;;;4751600;55;21049;-36
2022/01/31 15:38:44;;;;;;;172.27;141.25;;;18.80;47.50;;;;;;4744365;55;21475;-33
2022/01/31 15:43:47;;;;;;;170.20;136.05;;;18.80;47.40;;;;;;4765924;55;21149;-29
2022/01/31 15:48:48;;;;;;;176.18;143.13;;;18.80;47.40;;;;;;4789659;55;21555;-34
2022/01/31 15:53:49;;;;;;;170.73;139.20;;;18.80;47.30;;;;;;4738894;55;21041;-36
2022/01/31 15:58:51;;;;;;;167.85;136.18;;;18.80;47.20;;;;;;4770709;55;21523;-29
2022/01/31 16:03:52;;;;;;;173.77;137.43;;;18.80;47.20;;;;;;4751654;55;21556;-35
2022/01/31 16:08:54;;;;;;;172.50;139.43;;;18.80;47.20;;;;;;4800729;55;21089;-30
2022/01/31 16:13:55;;;;;;;168.50;139.05;;;18.80;47.10;;;;;;4757619;55;21528;-37
2022/01/31 16:18:56;;;;;;;171.77;137.82;;;18.80;47.00;;;;;;4737141;59;21969;-33
2022/01/31 16:23:57;;;;;;;173.82;138.90;;;18.80;47.00;;;;;;4779453;55;21129;-35
2022/01/31 16:28:58;;;;;;;175.73;140.60;;;18.80;47.00;;;;;;4736711;59;21034;-35
2022/01/31 16:34:02;;;;;;;173.45;141.73;;;18.80;46.90;;;;;;4745670;55;21168;-37
2022/01/31 16:39:03;;;;;;;168.82;140.85;;;18.80;46.90;;;;;;4742109;55;21481;-35
2022/01/31 16:44:04;;;;;;;173.23;141.15;;;18.80;46.80;;;;;;4744067;55;20994;-34
2022/01/31 16:49:08;;;;;;;174.52;141.90;;;18.80;46.80;;;;;;4757785;55;20990;-35
2022/01/31 16:54:09;;;;;;;177.23;142.98;;;18.80;46.80;;;;;;4773006;55;21432;-36
2022/01/31 16:59:11;;;;;;;175.20;141.12;;;18.80;46.70;;;;;;4770385;55;21029;-37
2022/01/31 17:04:12;;;;;;;166.45;140.98;;;18.80;46.70;;;;;;4758914;55;21481;-36
2022/01/31 17:09:13;;;;;;;175.25;142.50;;;18.80;46.70;;;;;;4745577;55;20998;-32
2022/01/31 17:14:14;;;;;;;185.23;150.05;;;18.80;46.70;;;;;;4736752;59;21109;-34
2022/01/31 17:19:15;;;;;;;174.68;144.07;;;18.80;46.60;;;;;;4779488;55;21160;-36
2022/01/31 17:24:16;;;;;;;183.10;145.75;;;18.80;46.60;;;;;;4737442;59;21079;-36
2022/01/31 17:29:17;;;;;;;183.32;147.77;;;18.80;46.70;;;;;;4796448;55;22127;-37
2022/01/31 17:34:18;;;;;;;178.15;146.20;;;18.80;46.60;;;;;;4746008;55;21515;-37
2022/01/31 17:39:19;;;;;;;188.25;151.37;;;18.80;46.50;;;;;;4738050;55;21065;-36
2022/01/31 17:44:24;;;;;;;184.77;152.00;;;18.80;46.50;;;;;;4741041;55;21005;-35
2022/01/31 17:49:26;;;;;;;186.90;149.87;;;18.80;46.50;;;;;;4740822;55;21497;-39
2022/01/31 17:54:27;;;;;;;189.87;151.52;;;18.80;46.50;;;;;;4764358;55;21042;-32
2022/01/31 17:59:29;;;;;;;187.32;148.75;;;18.80;47.00;;;;;;4740032;55;20994;-36
2022/01/31 18:04:30;;;;;;;182.48;147.77;;;18.80;46.40;;;;;;4755419;55;21603;-34
2022/01/31 18:09:31;;;;;;;194.10;157.82;;;18.80;46.40;;;;;;4736812;59;21536;-37
2022/01/31 18:14:32;;;;;;;179.87;147.32;;;18.80;46.40;;;;;;4739060;55;21040;-37
2022/01/31 18:19:34;;;;;;;191.98;154.80;;;18.80;46.40;;;;;;4739911;55;21100;-38
2022/01/31 18:24:35;;;;;;;193.35;154.75;;;18.80;46.30;;;;;;4737380;59;21030;-36
2022/01/31 18:29:36;;;;;;;191.82;154.18;;;18.80;46.30;;;;;;4738473;55;21029;-35
2022/01/31 18:34:37;;;;;;;187.05;151.05;;;18.80;46.30;;;;;;4738376;59;21042;-35
2022/01/31 18:39:39;;;;;;;189.77;155.43;;;18.80;46.30;;;;;;4762204;55;22106;-31
2022/01/31 18:44:40;;;;;;;196.55;155.57;;;18.80;46.20;;;;;;4752581;55;21558;-35
2022/01/31 18:49:50;;;;;;;197.87;159.27;;;18.80;46.20;;;;;;4767118;55;20998;-36
2022/01/31 18:54:51;;;;;;;193.00;159.82;;;18.70;46.10;;;;;;4766724;55;21630;-38
2022/01/31 18:59:52;;;;;;;196.80;157.48;;;18.80;46.20;;;;;;4762320;55;21059;-36
2022/01/31 19:04:53;;;;;;;193.00;160.10;;;18.80;46.10;;;;;;4738443;55;21086;-40
2022/01/31 19:09:54;;;;;;;201.20;159.70;;;18.80;46.10;;;;;;4750270;55;21574;-37
2022/01/31 19:20:43;;;;;;;194.05;157.00;;;18.80;46.20;;;;;;4782819;55;21066;-36
2022/01/31 19:25:48;;;;;;;192.25;155.00;;;18.80;46.10;;;;;;4737541;59;21050;-30
2022/01/31 19:30:51;;;;;;;195.35;157.80;;;18.80;46.10;;;;;;4783961;55;21119;-36
2022/01/31 19:35:54;;;;;;;198.90;162.15;;;18.80;46.10;;;;;;4738236;59;21483;-35
2022/01/31 19:46:21;;;;;;;191.27;154.65;;;18.80;46.10;;;;;;4737135;55;21025;-32
2022/01/31 19:51:28;;;;;;;189.70;153.00;;;18.80;46.10;;;;;;4784109;55;21536;-37
2022/01/31 19:56:29;;;;;;;187.07;153.15;;;18.80;46.10;;;;;;4770882;55;21117;-33
2022/01/31 20:01:30;;;;;;;194.10;157.55;;;18.80;46.10;;;;;;4753415;55;21449;-36
2022/01/31 20:06:31;;;;;;;191.12;154.75;;;18.80;46.10;;;;;;4737963;59;21101;-35
2022/01/31 20:11:34;;;;;;;195.18;157.88;;;18.70;46.00;;;;;;4737857;59;21058;-37
2022/01/31 20:16:35;;;;;;;184.75;152.30;;;18.80;46.10;;;;;;4791426;55;21572;-35
2022/01/31 20:21:36;;;;;;;181.68;150.77;;;18.80;46.10;;;;;;4764423;55;21055;-35
2022/01/31 20:26:37;;;;;;;184.85;151.40;;;18.80;46.10;;;;;;4755814;55;21137;-35
2022/01/31 20:31:38;;;;;;;189.35;152.85;;;18.80;46.10;;;;;;4749575;55;21014;-37
2022/01/31 20:36:43;;;;;;;181.30;148.68;;;18.80;46.00;;;;;;4742455;55;21077;-31
2022/01/31 20:41:47;;;;;;;178.77;147.32;;;18.70;45.90;;;;;;4772143;55;21467;-34
2022/01/31 20:46:49;;;;;;;186.18;152.18;;;18.80;46.00;;;;;;4737667;59;21089;-36
2022/01/31 20:51:50;;;;;;;180.63;144.85;;;18.80;46.00;;;;;;4737679;56;20994;-34
2022/01/31 20:56:50;;;;;;;178.40;145.93;;;18.80;46.10;;;;;;4782321;55;21881;-36
2022/01/31 21:01:52;;;;;;;175.43;144.73;;;18.70;45.90;;;;;;4773645;55;21504;-37
2022/01/31 21:06:53;;;;;;;175.20;144.35;;;18.80;46.00;;;;;;4741664;55;21547;-37
2022/01/31 21:11:54;;;;;;;171.43;141.85;;;18.70;46.00;;;;;;4746966;55;21034;-32
2022/01/31 21:16:55;;;;;;;171.90;143.27;;;18.80;46.00;;;;;;4738653;55;21488;-36
2022/01/31 21:21:56;;;;;;;167.93;135.88;;;18.80;46.00;;;;;;4738777;55;21464;-36
2022/01/31 21:26:57;;;;;;;168.32;138.95;;;18.80;46.00;;;;;;4757478;55;21098;-34
2022/01/31 21:31:58;;;;;;;170.02;140.82;;;18.70;46.00;;;;;;4758391;55;21021;-34
2022/01/31 21:36:59;;;;;;;169.20;138.73;;;18.80;46.00;;;;;;4751345;55;21502;-34
2022/01/31 21:42:00;;;;;;;171.68;139.32;;;18.80;46.00;;;;;;4765882;55;21113;-30
2022/01/31 21:47:00;;;;;;;168.40;138.77;;;18.70;45.90;;;;;;4759712;55;21503;-35
2022/01/31 21:52:01;;;;;;;164.15;135.45;;;18.70;46.00;;;;;;4744358;55;21129;-35
2022/01/31 21:57:05;;;;;;;162.30;134.25;;;18.70;46.70;;;;;;4737685;59;21023;-32
2022/01/31 22:02:08;;;;;;;156.85;132.90;;;18.80;46.10;;;;;;4763342;55;21026;-37
2022/01/31 22:07:09;;;;;;;165.25;136.12;;;18.70;46.00;;;;;;4754119;55;21073;-32
2022/01/31 22:12:10;;;;;;;165.07;138.25;;;18.80;46.00;;;;;;4753459;55;21524;-31
2022/01/31 22:17:11;;;;;;;158.00;132.57;;;18.70;46.10;;;;;;4756749;55;21022;-35
2022/01/31 22:22:12;;;;;;;161.10;134.02;;;18.70;46.00;;;;;;4754589;55;22421;-34
2022/01/31 22:27:12;;;;;;;157.70;133.20;;;18.70;46.00;;;;;;4756238;55;21045;-33
2022/01/31 22:32:13;;;;;;;154.15;129.25;;;18.70;46.10;;;;;;4738387;59;21018;-35
2022/01/31 22:37:14;;;;;;;159.23;131.87;;;18.70;46.60;;;;;;4776962;55;21028;-32
2022/01/31 22:42:15;;;;;;;154.65;129.23;;;18.70;46.00;;;;;;4737911;59;21034;-35
2022/01/31 22:47:16;;;;;;;154.07;129.00;;;18.70;46.00;;;;;;4741739;55;21029;-34
2022/01/31 22:52:17;;;;;;;149.38;126.25;;;18.70;45.90;;;;;;4756572;55;21059;-36
2022/01/31 22:57:18;;;;;;;149.95;127.75;;;18.70;46.00;;;;;;4784156;55;21090;-30
2022/01/31 23:02:19;;;;;;;145.70;123.03;;;18.70;45.90;;;;;;4738103;59;21355;-35
2022/01/31 23:07:20;;;;;;;146.65;123.10;;;18.70;45.90;;;;;;4737510;59;21062;-34
2022/01/31 23:12:27;;;;;;;146.62;122.82;;;18.70;45.80;;;;;;4737479;55;21038;-34
2022/01/31 23:17:35;;;;;;;140.80;120.37;;;18.70;46.00;;;;;;4754646;55;22051;-36
2022/01/31 23:42:11;;;;;;;145.32;124.60;;;18.70;45.80;;;;;;4742764;55;21472;-32
2022/01/31 23:53:02;;;;;;;132.68;114.62;;;18.70;45.80;;;;;;4737847;55;21157;-34
